createdAt,value
2017-08-22T00:00:17.744Z,50.1
2017-08-22T00:01:19.222Z,50
2017-08-22T00:02:21.018Z,50
2017-08-22T00:03:23.148Z,50
2017-08-22T00:04:25.288Z,50.3
2017-08-22T00:05:27.417Z,50.2
2017-08-22T00:06:29.545Z,50
2017-08-22T00:07:31.363Z,50.3
2017-08-22T00:08:33.327Z,50.1
2017-08-22T00:09:35.121Z,50.2
2017-08-22T00:10:36.256Z,50
2017-08-22T00:11:37.697Z,50
2017-08-22T00:12:39.499Z,50.3
2017-08-22T00:13:41.316Z,50.2
2017-08-22T00:14:42.782Z,50.2
2017-08-22T00:15:44.915Z,50.4
2017-08-22T00:16:47.046Z,50.5
2017-08-22T00:17:48.844Z,50.2
2017-08-22T00:18:50.649Z,50.3
2017-08-22T00:19:52.096Z,50.3
2017-08-22T00:20:54.224Z,50.2
2017-08-22T00:21:56.000Z,50.3
2017-08-22T00:22:57.467Z,50.2
2017-08-22T00:23:59.243Z,50.2
2017-08-22T00:25:01.044Z,50.2
2017-08-22T00:26:02.533Z,50.3
2017-08-22T00:27:07.707Z,50.2
2017-08-22T00:28:09.173Z,50.2
2017-08-22T00:29:10.948Z,49.9
2017-08-22T00:30:12.416Z,50.3
2017-08-22T00:31:14.540Z,50.1
2017-08-22T00:32:16.316Z,50.4
2017-08-22T00:33:17.757Z,50.2
2017-08-22T00:34:19.886Z,50.2
2017-08-22T00:35:22.013Z,50.3
2017-08-22T00:36:23.828Z,50.2
2017-08-22T00:37:25.628Z,50.2
2017-08-22T00:38:27.431Z,50
2017-08-22T00:39:29.229Z,50.4
2017-08-22T00:40:31.005Z,50.1
2017-08-22T00:41:32.805Z,50
2017-08-22T00:42:34.603Z,50.1
2017-08-22T00:43:35.374Z,50.2
2017-08-22T00:44:37.173Z,50
2017-08-22T00:45:38.952Z,49.6
2017-08-22T00:46:39.731Z,50.3
2017-08-22T00:47:41.860Z,50.2
2017-08-22T00:48:43.637Z,50.3
2017-08-22T00:49:45.767Z,50.4
2017-08-22T00:50:47.578Z,50.2
2017-08-22T00:51:49.705Z,50.2
2017-08-22T00:52:51.503Z,49.9
2017-08-22T00:53:52.969Z,49.9
2017-08-22T00:54:54.411Z,49.7
2017-08-22T00:55:56.209Z,50
2017-08-22T00:56:57.982Z,50.1
2017-08-22T00:57:59.779Z,50
2017-08-22T00:59:01.579Z,50.1
2017-08-22T01:00:03.706Z,50.2
2017-08-22T01:01:05.838Z,49.7
2017-08-22T01:02:07.610Z,49.8
2017-08-22T01:03:09.418Z,49.8
2017-08-22T01:04:11.560Z,49.9
2017-08-22T01:05:13.021Z,49.9
2017-08-22T01:06:15.150Z,49.9
2017-08-22T01:07:17.280Z,49.7
2017-08-22T01:08:19.409Z,49.9
2017-08-22T01:09:21.186Z,50.3
2017-08-22T01:10:22.630Z,49.8
2017-08-22T01:11:24.426Z,49.7
2017-08-22T01:12:25.867Z,49.8
2017-08-22T01:13:27.641Z,49.9
2017-08-22T01:14:29.106Z,49.8
2017-08-22T01:15:31.251Z,49.9
2017-08-22T01:16:33.034Z,49.8
2017-08-22T01:17:34.501Z,49.8
2017-08-22T01:18:36.294Z,49.7
2017-08-22T01:19:38.070Z,50
2017-08-22T01:20:39.841Z,49.9
2017-08-22T01:21:41.636Z,49.9
2017-08-22T01:22:43.765Z,49.7
2017-08-22T01:23:45.905Z,49.6
2017-08-22T01:24:47.369Z,49.9
2017-08-22T01:25:49.145Z,49.7
2017-08-22T01:26:50.593Z,49.7
2017-08-22T01:27:52.726Z,50.2
2017-08-22T01:28:54.167Z,49.7
2017-08-22T01:29:55.978Z,49.9
2017-08-22T01:30:58.096Z,49.9
2017-08-22T01:31:59.541Z,49.7
2017-08-22T01:33:01.361Z,49.7
2017-08-22T01:34:03.493Z,49.6
2017-08-22T01:35:05.285Z,49.9
2017-08-22T01:36:06.747Z,49.7
2017-08-22T01:37:08.544Z,49.6
2017-08-22T01:38:10.341Z,49.7
2017-08-22T01:39:12.468Z,49.7
2017-08-22T01:40:14.598Z,50.4
2017-08-22T01:41:16.399Z,49.8
2017-08-22T01:42:17.189Z,49.7
2017-08-22T01:43:18.976Z,49.8
2017-08-22T01:44:20.771Z,50
2017-08-22T01:45:22.568Z,50
2017-08-22T01:46:24.347Z,50
2017-08-22T01:47:25.789Z,49.7
2017-08-22T01:48:27.583Z,50
2017-08-22T01:49:29.026Z,49.8
2017-08-22T01:50:31.160Z,49.9
2017-08-22T01:51:32.953Z,49.9
2017-08-22T01:52:34.745Z,49.9
2017-08-22T01:53:36.876Z,49.7
2017-08-22T01:54:38.670Z,49.7
2017-08-22T01:55:40.145Z,50.3
2017-08-22T01:56:41.610Z,49.7
2017-08-22T01:57:43.410Z,49.6
2017-08-22T01:58:45.206Z,49.8
2017-08-22T01:59:46.667Z,49.8
2017-08-22T02:00:48.466Z,50.4
2017-08-22T02:01:50.598Z,50
2017-08-22T02:02:52.398Z,50.1
2017-08-22T02:03:54.194Z,50
2017-08-22T02:04:55.995Z,50
2017-08-22T02:05:57.438Z,50
2017-08-22T02:06:59.236Z,50.1
2017-08-22T02:08:01.017Z,49.8
2017-08-22T02:09:02.816Z,49.9
2017-08-22T02:10:04.949Z,49.8
2017-08-22T02:11:06.724Z,49.9
2017-08-22T02:12:08.540Z,49.7
2017-08-22T02:13:10.696Z,50.1
2017-08-22T02:14:12.826Z,50
2017-08-22T02:15:14.602Z,49.7
2017-08-22T02:16:16.402Z,50
2017-08-22T02:17:17.849Z,49.9
2017-08-22T02:18:19.289Z,49.8
2017-08-22T02:19:21.081Z,49.8
2017-08-22T02:20:22.546Z,49.9
2017-08-22T02:21:24.680Z,49.7
2017-08-22T02:22:26.828Z,49.7
2017-08-22T02:23:28.958Z,49.7
2017-08-22T02:24:30.756Z,50
2017-08-22T02:25:32.200Z,50.1
2017-08-22T02:26:33.308Z,50
2017-08-22T02:27:34.421Z,49.8
2017-08-22T02:28:35.868Z,49.7
2017-08-22T02:29:37.998Z,49.7
2017-08-22T02:30:39.792Z,49.9
2017-08-22T02:31:41.587Z,50.1
2017-08-22T02:32:43.716Z,50
2017-08-22T02:33:45.843Z,49.9
2017-08-22T02:34:47.285Z,50
2017-08-22T02:35:48.761Z,49.8
2017-08-22T02:36:50.558Z,49.6
2017-08-22T02:37:52.688Z,49.7
2017-08-22T02:38:54.484Z,49.8
2017-08-22T02:39:56.282Z,49.9
2017-08-22T02:40:58.418Z,50.2
2017-08-22T02:42:00.205Z,49.8
2017-08-22T02:43:02.330Z,49.8
2017-08-22T02:44:03.773Z,49.9
2017-08-22T02:45:05.238Z,49.7
2017-08-22T02:46:07.036Z,49.8
2017-08-22T02:47:08.835Z,50
2017-08-22T02:48:10.633Z,49.9
2017-08-22T02:49:12.410Z,49.8
2017-08-22T02:50:13.852Z,49.9
2017-08-22T02:51:15.660Z,49.8
2017-08-22T02:52:17.103Z,49.8
2017-08-22T02:53:18.880Z,49.8
2017-08-22T02:54:20.676Z,49.8
2017-08-22T02:55:22.475Z,49.7
2017-08-22T02:56:24.607Z,49.7
2017-08-22T02:57:26.052Z,49.8
2017-08-22T02:58:27.847Z,49.7
2017-08-22T02:59:29.648Z,49.7
2017-08-22T03:00:31.458Z,49.6
2017-08-22T03:01:33.252Z,49.8
2017-08-22T03:02:34.694Z,49.9
2017-08-22T03:03:36.491Z,49.7
2017-08-22T03:04:38.289Z,49.9
2017-08-22T03:05:40.065Z,49.7
2017-08-22T03:06:41.529Z,49.8
2017-08-22T03:07:42.656Z,50.1
2017-08-22T03:08:44.451Z,49.7
2017-08-22T03:09:46.246Z,50
2017-08-22T03:10:48.021Z,49.8
2017-08-22T03:11:49.800Z,49.8
2017-08-22T03:12:51.285Z,50
2017-08-22T03:13:53.081Z,49.7
2017-08-22T03:14:54.188Z,49.6
2017-08-22T03:15:55.987Z,49.9
2017-08-22T03:16:58.146Z,49.7
2017-08-22T03:17:59.595Z,49.8
2017-08-22T03:19:01.389Z,50.1
2017-08-22T03:20:02.875Z,50
2017-08-22T03:21:03.983Z,49.7
2017-08-22T03:22:05.789Z,49.8
2017-08-22T03:23:07.584Z,49.9
2017-08-22T03:24:09.717Z,50
2017-08-22T03:25:11.178Z,49.8
2017-08-22T03:26:12.976Z,49.8
2017-08-22T03:27:14.768Z,50.1
2017-08-22T03:28:15.560Z,50.1
2017-08-22T03:29:17.346Z,50
2017-08-22T03:30:19.477Z,49.8
2017-08-22T03:31:21.273Z,49.8
2017-08-22T03:32:22.757Z,49.7
2017-08-22T03:33:24.224Z,49.7
2017-08-22T03:34:26.350Z,49.7
2017-08-22T03:35:27.814Z,49.7
2017-08-22T03:36:29.942Z,50
2017-08-22T03:37:31.716Z,50.1
2017-08-22T03:38:33.181Z,49.7
2017-08-22T03:39:34.979Z,50.1
2017-08-22T03:40:37.105Z,49.7
2017-08-22T03:41:38.904Z,50
2017-08-22T03:42:40.347Z,50
2017-08-22T03:43:41.788Z,49.8
2017-08-22T03:44:43.583Z,49.9
2017-08-22T03:45:45.378Z,50
2017-08-22T03:46:47.154Z,49.9
2017-08-22T03:47:48.622Z,49.9
2017-08-22T03:48:50.417Z,50.1
2017-08-22T03:49:51.531Z,49.8
2017-08-22T03:50:53.322Z,49.9
2017-08-22T03:51:55.095Z,49.8
2017-08-22T03:52:56.894Z,49.9
2017-08-22T03:53:59.023Z,49.8
2017-08-22T03:55:00.821Z,49.8
2017-08-22T03:56:02.620Z,50.1
2017-08-22T03:57:04.417Z,49.8
2017-08-22T03:58:06.227Z,49.7
2017-08-22T03:59:07.667Z,50.1
2017-08-22T04:00:09.801Z,49.8
2017-08-22T04:01:11.246Z,50
2017-08-22T04:02:12.693Z,50
2017-08-22T04:03:14.488Z,49.8
2017-08-22T04:04:15.933Z,49.9
2017-08-22T04:05:17.373Z,49.7
2017-08-22T04:06:18.819Z,49.9
2017-08-22T04:07:20.619Z,49.7
2017-08-22T04:08:22.055Z,49.7
2017-08-22T04:09:24.182Z,49.7
2017-08-22T04:10:25.977Z,49.7
2017-08-22T04:11:27.445Z,50.1
2017-08-22T04:12:28.915Z,50.1
2017-08-22T04:13:30.050Z,49.7
2017-08-22T04:14:31.512Z,49.7
2017-08-22T04:15:33.640Z,49.7
2017-08-22T04:16:35.770Z,49.7
2017-08-22T04:17:37.220Z,49.8
2017-08-22T04:18:39.350Z,49.9
2017-08-22T04:19:40.464Z,49.8
2017-08-22T04:20:41.918Z,49.8
2017-08-22T04:21:44.050Z,49.8
2017-08-22T04:22:46.183Z,50
2017-08-22T04:23:48.313Z,50
2017-08-22T04:24:50.085Z,50.1
2017-08-22T04:25:51.262Z,49.9
2017-08-22T04:26:53.060Z,50.1
2017-08-22T04:27:55.196Z,49.7
2017-08-22T04:28:56.638Z,50
2017-08-22T04:29:58.435Z,49.7
2017-08-22T04:31:00.564Z,50.1
2017-08-22T04:32:02.696Z,49.7
2017-08-22T04:33:04.491Z,49.7
2017-08-22T04:34:06.621Z,49.8
2017-08-22T04:35:08.423Z,49.7
2017-08-22T04:36:10.551Z,50
2017-08-22T04:37:11.654Z,50.1
2017-08-22T04:38:13.121Z,49.7
2017-08-22T04:39:14.917Z,49.7
2017-08-22T04:40:17.047Z,49.8
2017-08-22T04:41:19.180Z,49.8
2017-08-22T04:42:20.624Z,49.9
2017-08-22T04:43:22.423Z,49.8
2017-08-22T04:44:24.554Z,49.9
2017-08-22T04:45:26.687Z,49.8
2017-08-22T04:46:28.818Z,49.8
2017-08-22T04:47:30.612Z,49.7
2017-08-22T04:48:32.742Z,49.8
2017-08-22T04:49:34.872Z,49.7
2017-08-22T04:50:37.005Z,49.8
2017-08-22T04:51:39.134Z,49.9
2017-08-22T04:52:40.933Z,49.9
2017-08-22T04:53:42.727Z,49.6
2017-08-22T04:54:44.858Z,49.8
2017-08-22T04:55:46.989Z,49.9
2017-08-22T04:56:48.435Z,50.4
2017-08-22T04:57:50.237Z,49.9
2017-08-22T04:58:52.370Z,49.9
2017-08-22T04:59:54.509Z,49.8
2017-08-22T05:00:56.634Z,49.8
2017-08-22T05:01:58.413Z,50
2017-08-22T05:03:00.238Z,49.8
2017-08-22T05:04:02.038Z,49.8
2017-08-22T05:05:04.166Z,49.7
2017-08-22T05:06:06.298Z,49.9
2017-08-22T05:07:08.095Z,50.3
2017-08-22T05:08:09.871Z,49.6
2017-08-22T05:09:11.669Z,50.3
2017-08-22T05:10:13.485Z,50.3
2017-08-22T05:11:15.601Z,49.8
2017-08-22T05:12:17.731Z,49.8
2017-08-22T05:13:19.862Z,49.7
2017-08-22T05:14:21.660Z,49.7
2017-08-22T05:15:23.790Z,49.8
2017-08-22T05:16:24.905Z,49.7
2017-08-22T05:17:26.697Z,49.9
2017-08-22T05:18:28.838Z,49.9
2017-08-22T05:19:30.637Z,49.8
2017-08-22T05:20:32.102Z,50.3
2017-08-22T05:21:34.232Z,49.9
2017-08-22T05:22:36.029Z,49.6
2017-08-22T05:23:37.148Z,49.8
2017-08-22T05:24:39.276Z,49.7
2017-08-22T05:25:41.413Z,49.7
2017-08-22T05:26:43.189Z,49.8
2017-08-22T05:27:44.989Z,49.6
2017-08-22T05:28:46.783Z,49.7
2017-08-22T05:29:48.578Z,49.7
2017-08-22T05:30:50.352Z,50
2017-08-22T05:31:52.153Z,49.8
2017-08-22T05:32:54.282Z,49.7
2017-08-22T05:33:56.151Z,49.7
2017-08-22T05:34:57.951Z,49.8
2017-08-22T05:35:59.731Z,49.8
2017-08-22T05:37:01.534Z,49.8
2017-08-22T05:38:03.662Z,49.8
2017-08-22T05:39:05.788Z,50.3
2017-08-22T05:40:07.233Z,49.7
2017-08-22T05:41:08.703Z,49.8
2017-08-22T05:42:10.502Z,49.9
2017-08-22T05:43:12.305Z,49.8
2017-08-22T05:44:14.104Z,49.8
2017-08-22T05:45:15.904Z,49.8
2017-08-22T05:46:18.032Z,50
2017-08-22T05:47:19.829Z,49.7
2017-08-22T05:48:20.971Z,50
2017-08-22T05:49:23.108Z,49.9
2017-08-22T05:50:25.234Z,49.9
2017-08-22T05:51:26.701Z,49.8
2017-08-22T05:52:28.831Z,49.9
2017-08-22T05:53:30.964Z,50.1
2017-08-22T05:54:33.091Z,49.8
2017-08-22T05:55:34.556Z,49.9
2017-08-22T05:56:36.331Z,49.7
2017-08-22T05:57:38.124Z,50
2017-08-22T05:58:39.922Z,50.3
2017-08-22T05:59:41.721Z,50.1
2017-08-22T06:00:43.853Z,50.2
2017-08-22T06:01:45.985Z,50.1
2017-08-22T06:02:48.358Z,50.3
2017-08-22T06:03:50.246Z,50.3
2017-08-22T06:04:52.376Z,49.9
2017-08-22T06:05:54.175Z,49.9
2017-08-22T06:06:55.314Z,50
2017-08-22T06:07:57.449Z,50
2017-08-22T06:08:59.253Z,50.3
2017-08-22T06:10:01.386Z,50.1
2017-08-22T06:11:02.525Z,50.5
2017-08-22T06:12:04.300Z,50.2
2017-08-22T06:13:06.447Z,50.3
2017-08-22T06:14:07.241Z,50.1
2017-08-22T06:15:09.372Z,49.8
2017-08-22T06:16:11.166Z,50
2017-08-22T06:17:13.300Z,50.2
2017-08-22T06:18:15.097Z,50.1
2017-08-22T06:19:17.243Z,49.9
2017-08-22T06:20:18.686Z,50.1
2017-08-22T06:21:20.129Z,50
2017-08-22T06:22:21.595Z,49.9
2017-08-22T06:23:23.037Z,49.7
2017-08-22T06:24:25.167Z,49.8
2017-08-22T06:25:27.040Z,49.9
2017-08-22T06:26:28.836Z,50
2017-08-22T06:27:30.303Z,50.2
2017-08-22T06:28:32.484Z,49.9
2017-08-22T06:29:34.266Z,50.1
2017-08-22T06:30:35.712Z,50.3
2017-08-22T06:31:37.495Z,50.2
2017-08-22T06:32:38.609Z,50.2
2017-08-22T06:33:40.407Z,50.3
2017-08-22T06:34:41.540Z,50.3
2017-08-22T06:35:42.984Z,50.2
2017-08-22T06:36:44.452Z,50.1
2017-08-22T06:37:46.585Z,50
2017-08-22T06:38:48.716Z,49.9
2017-08-22T06:39:50.853Z,49.7
2017-08-22T06:40:52.985Z,49.8
2017-08-22T06:41:55.123Z,50.4
2017-08-22T06:42:56.900Z,50.6
2017-08-22T06:43:59.031Z,50.1
2017-08-22T06:45:01.167Z,50.2
2017-08-22T06:46:02.949Z,49.8
2017-08-22T06:47:04.746Z,50.3
2017-08-22T06:48:06.214Z,50.4
2017-08-22T06:49:07.676Z,50.2
2017-08-22T06:50:08.463Z,50.5
2017-08-22T06:51:10.261Z,50.2
2017-08-22T06:52:12.394Z,50.8
2017-08-22T06:53:13.862Z,50.3
2017-08-22T06:54:14.977Z,50.5
2017-08-22T06:55:16.776Z,50.3
2017-08-22T06:56:18.242Z,50.8
2017-08-22T06:57:20.373Z,50.9
2017-08-22T06:58:22.168Z,50.8
2017-08-22T06:59:24.306Z,50.9
2017-08-22T07:00:25.751Z,50.4
2017-08-22T07:01:27.391Z,50.1
2017-08-22T07:02:29.019Z,50.8
2017-08-22T07:03:30.131Z,50.4
2017-08-22T07:04:31.992Z,51
2017-08-22T07:05:33.808Z,50.3
2017-08-22T07:06:35.610Z,50.4
2017-08-22T07:07:37.413Z,50.8
2017-08-22T07:08:39.216Z,50.8
2017-08-22T07:09:41.020Z,50.8
2017-08-22T07:10:43.151Z,50.8
2017-08-22T07:11:44.932Z,51
2017-08-22T07:12:46.730Z,51
2017-08-22T07:13:48.535Z,51.5
2017-08-22T07:14:50.775Z,51
2017-08-22T07:15:52.593Z,50.8
2017-08-22T07:16:54.375Z,50.7
2017-08-22T07:17:55.498Z,50.5
2017-08-22T07:18:57.274Z,50.5
2017-08-22T07:19:59.084Z,50.7
2017-08-22T07:21:00.882Z,50.9
2017-08-22T07:22:02.663Z,50.9
2017-08-22T07:23:04.135Z,50.6
2017-08-22T07:24:05.915Z,50.3
2017-08-22T07:25:07.695Z,50.5
2017-08-22T07:26:09.500Z,50.4
2017-08-22T07:27:11.307Z,50
2017-08-22T07:28:12.423Z,50.3
2017-08-22T07:29:14.554Z,50.1
2017-08-22T07:30:16.334Z,50
2017-08-22T07:31:17.454Z,50
2017-08-22T07:32:19.257Z,49.8
2017-08-22T07:33:20.703Z,49.9
2017-08-22T07:34:22.843Z,50.2
2017-08-22T07:35:24.977Z,50
2017-08-22T07:36:27.110Z,50.1
2017-08-22T07:37:28.580Z,50.2
2017-08-22T07:38:30.387Z,50.3
2017-08-22T07:39:31.856Z,50.2
2017-08-22T07:40:33.327Z,50.1
2017-08-22T07:41:35.464Z,50
2017-08-22T07:42:37.597Z,50.2
2017-08-22T07:43:39.381Z,50.2
2017-08-22T07:44:41.516Z,50.1
2017-08-22T07:45:43.651Z,49.7
2017-08-22T07:46:45.452Z,50.5
2017-08-22T07:47:47.255Z,50.3
2017-08-22T07:48:49.032Z,50.1
2017-08-22T07:49:50.505Z,50.3
2017-08-22T07:50:52.799Z,50.7
2017-08-22T07:51:54.253Z,51.1
2017-08-22T07:52:56.059Z,50.4
2017-08-22T07:53:57.864Z,50.6
2017-08-22T07:54:59.666Z,50.8
2017-08-22T07:56:01.472Z,50.7
2017-08-22T07:57:03.608Z,50.6
2017-08-22T07:58:05.058Z,50.5
2017-08-22T07:59:06.173Z,50.4
2017-08-22T08:00:07.976Z,50.3
2017-08-22T08:01:09.759Z,50.4
2017-08-22T08:02:11.233Z,50.4
2017-08-22T08:03:13.365Z,50.3
2017-08-22T08:04:14.845Z,50.5
2017-08-22T08:05:16.316Z,50.4
2017-08-22T08:06:18.147Z,50.4
2017-08-22T08:07:19.957Z,50.4
2017-08-22T08:08:21.428Z,50.3
2017-08-22T08:09:23.566Z,50.3
2017-08-22T08:10:25.355Z,50
2017-08-22T08:11:27.138Z,50.3
2017-08-22T08:12:28.586Z,50.2
2017-08-22T08:13:30.402Z,50.1
2017-08-22T08:14:31.877Z,50.1
2017-08-22T08:15:33.685Z,50.1
2017-08-22T08:16:35.534Z,50.1
2017-08-22T08:17:37.026Z,50.1
2017-08-22T08:18:39.155Z,50
2017-08-22T08:19:40.963Z,50.2
2017-08-22T08:20:42.417Z,50.1
2017-08-22T08:21:44.026Z,49.8
2017-08-22T08:22:45.474Z,49.9
2017-08-22T08:23:47.627Z,49.9
2017-08-22T08:24:48.774Z,50.1
2017-08-22T08:25:50.552Z,50
2017-08-22T08:26:52.700Z,49.9
2017-08-22T08:27:54.158Z,50
2017-08-22T08:28:55.628Z,50.2
2017-08-22T08:29:57.104Z,50.3
2017-08-22T08:30:59.239Z,49.9
2017-08-22T08:32:00.705Z,49.8
2017-08-22T08:33:02.513Z,49.8
2017-08-22T08:34:03.632Z,50.2
2017-08-22T08:35:05.433Z,50
2017-08-22T08:36:06.560Z,50
2017-08-22T08:37:08.715Z,50
2017-08-22T08:38:10.840Z,50.2
2017-08-22T08:39:12.643Z,50.1
2017-08-22T08:40:14.778Z,50.2
2017-08-22T08:41:16.247Z,50.2
2017-08-22T08:42:18.051Z,50.3
2017-08-22T08:43:19.829Z,50
2017-08-22T08:44:21.983Z,50.5
2017-08-22T08:45:23.764Z,50.4
2017-08-22T08:46:25.907Z,50.2
2017-08-22T08:47:27.385Z,49.8
2017-08-22T08:48:28.853Z,49.9
2017-08-22T08:49:29.974Z,49.7
2017-08-22T08:50:32.101Z,49.7
2017-08-22T08:51:33.220Z,49.8
2017-08-22T08:52:35.021Z,49.7
2017-08-22T08:53:36.820Z,49.8
2017-08-22T08:54:38.266Z,50
2017-08-22T08:55:40.400Z,49.9
2017-08-22T08:56:41.877Z,49.9
2017-08-22T08:57:43.726Z,50
2017-08-22T08:58:45.197Z,50.1
2017-08-22T08:59:47.365Z,50
2017-08-22T09:00:49.490Z,49.9
2017-08-22T09:01:51.290Z,49.7
2017-08-22T09:02:52.130Z,49.8
2017-08-22T09:03:53.928Z,49.9
2017-08-22T09:04:55.727Z,49.7
2017-08-22T09:05:57.524Z,49.8
2017-08-22T09:06:59.655Z,49.8
2017-08-22T09:08:01.458Z,49.8
2017-08-22T09:09:03.260Z,49.8
2017-08-22T09:10:05.393Z,50.1
2017-08-22T09:11:07.516Z,50
2017-08-22T09:12:09.603Z,49.8
2017-08-22T09:13:11.401Z,49.8
2017-08-22T09:14:13.231Z,49.9
2017-08-22T09:15:15.078Z,50.1
2017-08-22T09:16:17.235Z,50
2017-08-22T09:17:19.373Z,50.1
2017-08-22T09:18:21.173Z,50
2017-08-22T09:19:22.972Z,50
2017-08-22T09:20:25.109Z,50
2017-08-22T09:21:27.236Z,50.1
2017-08-22T09:22:29.422Z,50.2
2017-08-22T09:23:31.553Z,50
2017-08-22T09:24:33.353Z,49.8
2017-08-22T09:25:35.127Z,49.8
2017-08-22T09:26:36.909Z,50
2017-08-22T09:27:38.785Z,49.8
2017-08-22T09:28:39.904Z,50.3
2017-08-22T09:29:42.042Z,50.1
2017-08-22T09:30:44.173Z,49.8
2017-08-22T09:31:45.304Z,50.2
2017-08-22T09:32:46.479Z,49.6
2017-08-22T09:33:47.923Z,49.8
2017-08-22T09:34:49.726Z,49.7
2017-08-22T09:35:50.859Z,49.7
2017-08-22T09:36:52.672Z,49.8
2017-08-22T09:37:54.513Z,49.8
2017-08-22T09:38:56.319Z,50.1
2017-08-22T09:39:57.781Z,50
2017-08-22T09:40:58.567Z,50
2017-08-22T09:42:00.367Z,49.8
2017-08-22T09:43:01.478Z,49.6
2017-08-22T09:44:03.612Z,49.7
2017-08-22T09:45:05.079Z,49.7
2017-08-22T09:46:06.881Z,49.6
2017-08-22T09:47:08.685Z,49.6
2017-08-22T09:48:10.504Z,49.8
2017-08-22T09:49:11.955Z,49.4
2017-08-22T09:50:13.403Z,49.8
2017-08-22T09:51:14.518Z,49.6
2017-08-22T09:52:16.654Z,49.5
2017-08-22T09:53:18.791Z,49.6
2017-08-22T09:54:20.924Z,49.8
2017-08-22T09:55:22.726Z,49.8
2017-08-22T09:56:24.181Z,49.6
2017-08-22T09:57:25.957Z,49.7
2017-08-22T09:58:27.734Z,49.8
2017-08-22T09:59:29.517Z,49.6
2017-08-22T10:00:31.317Z,49.5
2017-08-22T10:01:33.121Z,49.5
2017-08-22T10:02:35.260Z,49.3
2017-08-22T10:03:37.058Z,49.4
2017-08-22T10:04:38.836Z,49.5
2017-08-22T10:05:40.644Z,49.6
2017-08-22T10:06:42.780Z,49.4
2017-08-22T10:07:44.581Z,49.3
2017-08-22T10:08:46.364Z,49.3
2017-08-22T10:09:48.165Z,49.7
2017-08-22T10:10:50.301Z,49.4
2017-08-22T10:11:52.079Z,49.4
2017-08-22T10:12:52.875Z,49.8
2017-08-22T10:13:55.004Z,49.5
2017-08-22T10:14:56.806Z,49.6
2017-08-22T10:15:58.608Z,49.6
2017-08-22T10:17:00.408Z,49.8
2017-08-22T10:18:01.861Z,49.6
2017-08-22T10:19:03.673Z,49.4
2017-08-22T10:20:05.116Z,49.8
2017-08-22T10:21:07.274Z,49.6
2017-08-22T10:22:08.395Z,49.8
2017-08-22T10:23:10.537Z,49.7
2017-08-22T10:24:12.333Z,49.5
2017-08-22T10:25:14.132Z,49.5
2017-08-22T10:26:15.249Z,49.8
2017-08-22T10:27:17.381Z,49.3
2017-08-22T10:28:19.515Z,49.1
2017-08-22T10:29:21.040Z,49
2017-08-22T10:30:22.487Z,49.3
2017-08-22T10:31:24.622Z,49.8
2017-08-22T10:32:26.755Z,49.5
2017-08-22T10:33:28.556Z,49.6
2017-08-22T10:34:30.357Z,49.5
2017-08-22T10:35:32.134Z,49.8
2017-08-22T10:36:33.911Z,49.4
2017-08-22T10:37:35.713Z,49.4
2017-08-22T10:38:37.177Z,49.4
2017-08-22T10:39:38.650Z,48.9
2017-08-22T10:40:40.452Z,49.7
2017-08-22T10:41:42.591Z,49.4
2017-08-22T10:42:43.707Z,50
2017-08-22T10:43:45.844Z,49.7
2017-08-22T10:44:47.976Z,49.3
2017-08-22T10:45:50.109Z,49.4
2017-08-22T10:46:52.244Z,49.3
2017-08-22T10:47:54.043Z,49.1
2017-08-22T10:48:56.181Z,49
2017-08-22T10:49:58.078Z,49.3
2017-08-22T10:50:59.552Z,49
2017-08-22T10:52:00.996Z,49.1
2017-08-22T10:53:02.113Z,49.7
2017-08-22T10:54:03.917Z,49.4
2017-08-22T10:55:05.359Z,49.4
2017-08-22T10:56:07.186Z,48.9
2017-08-22T10:57:08.988Z,49.1
2017-08-22T10:58:10.794Z,49.4
2017-08-22T10:59:12.928Z,49.3
2017-08-22T11:00:14.707Z,49.3
2017-08-22T11:01:16.489Z,49.1
2017-08-22T11:02:18.283Z,49.3
2017-08-22T11:03:20.089Z,49.4
2017-08-22T11:04:22.222Z,49.1
2017-08-22T11:05:24.007Z,49.4
2017-08-22T11:06:25.450Z,49.5
2017-08-22T11:07:27.592Z,49.4
2017-08-22T11:08:29.390Z,49.5
2017-08-22T11:09:30.515Z,48.9
2017-08-22T11:10:32.313Z,49
2017-08-22T11:11:34.116Z,48.9
2017-08-22T11:12:35.559Z,49
2017-08-22T11:13:37.361Z,48.9
2017-08-22T11:14:39.558Z,49.4
2017-08-22T11:15:41.359Z,49.2
2017-08-22T11:16:43.163Z,49
2017-08-22T11:17:44.612Z,49.4
2017-08-22T11:18:46.396Z,49.6
2017-08-22T11:19:48.178Z,49
2017-08-22T11:20:50.306Z,49.1
2017-08-22T11:21:51.424Z,49.1
2017-08-22T11:22:53.226Z,49.8
2017-08-22T11:23:55.363Z,49.1
2017-08-22T11:24:57.159Z,49.6
2017-08-22T11:25:59.013Z,49.8
2017-08-22T11:27:01.144Z,49
2017-08-22T11:28:02.945Z,49.1
2017-08-22T11:29:05.076Z,49.4
2017-08-22T11:30:06.871Z,49.3
2017-08-22T11:31:08.341Z,49.4
2017-08-22T11:32:09.786Z,49.5
2017-08-22T11:33:11.914Z,49
2017-08-22T11:34:14.048Z,49.2
2017-08-22T11:35:16.180Z,49
2017-08-22T11:36:17.983Z,49.1
2017-08-22T11:37:19.781Z,49
2017-08-22T11:38:21.584Z,48.9
2017-08-22T11:39:23.387Z,49
2017-08-22T11:40:25.192Z,49
2017-08-22T11:41:27.321Z,48.9
2017-08-22T11:42:29.120Z,48.9
2017-08-22T11:43:30.929Z,49.3
2017-08-22T11:44:32.731Z,49.1
2017-08-22T11:45:34.525Z,49
2017-08-22T11:46:36.330Z,49.3
2017-08-22T11:47:37.797Z,49
2017-08-22T11:48:39.264Z,49.6
2017-08-22T11:49:41.065Z,49
2017-08-22T11:50:42.544Z,49.2
2017-08-22T11:51:44.091Z,48.9
2017-08-22T11:52:45.872Z,48.9
2017-08-22T11:53:47.999Z,49
2017-08-22T11:54:49.446Z,49
2017-08-22T11:55:51.580Z,49
2017-08-22T11:56:53.763Z,49.2
2017-08-22T11:57:55.896Z,48.9
2017-08-22T11:58:57.698Z,49
2017-08-22T11:59:59.828Z,48.9
2017-08-22T12:01:01.963Z,49
2017-08-22T12:02:03.074Z,48.9
2017-08-22T12:03:05.207Z,49.1
2017-08-22T12:04:07.343Z,49
2017-08-22T12:05:08.812Z,48.9
2017-08-22T12:06:10.254Z,49
2017-08-22T12:07:11.722Z,48.9
2017-08-22T12:08:13.185Z,49
2017-08-22T12:09:14.628Z,49
2017-08-22T12:10:16.427Z,48.9
2017-08-22T12:11:18.561Z,49
2017-08-22T12:12:20.341Z,48.9
2017-08-22T12:13:22.471Z,49
2017-08-22T12:14:24.603Z,48.9
2017-08-22T12:15:26.380Z,49
2017-08-22T12:16:28.182Z,48.9
2017-08-22T12:17:29.301Z,49
2017-08-22T12:18:31.435Z,48.9
2017-08-22T12:19:32.918Z,49.2
2017-08-22T12:20:35.049Z,49.2
2017-08-22T12:21:36.853Z,49.1
2017-08-22T12:22:38.638Z,49
2017-08-22T12:23:40.414Z,49.1
2017-08-22T12:24:42.198Z,49.1
2017-08-22T12:25:43.645Z,49.1
2017-08-22T12:26:45.775Z,49.1
2017-08-22T12:27:47.277Z,49.1
2017-08-22T12:28:49.412Z,49
2017-08-22T12:29:51.542Z,49
2017-08-22T12:30:53.323Z,49
2017-08-22T12:31:55.159Z,49
2017-08-22T12:32:56.956Z,48.8
2017-08-22T12:33:59.100Z,49
2017-08-22T12:35:00.899Z,49
2017-08-22T12:36:02.703Z,49
2017-08-22T12:37:04.504Z,49.1
2017-08-22T12:38:06.353Z,49.1
2017-08-22T12:39:08.487Z,49.2
2017-08-22T12:40:10.285Z,49
2017-08-22T12:41:12.069Z,48.7
2017-08-22T12:42:14.200Z,49
2017-08-22T12:43:15.996Z,49
2017-08-22T12:44:17.800Z,48.9
2017-08-22T12:45:19.275Z,48.6
2017-08-22T12:46:20.748Z,48.7
2017-08-22T12:47:22.875Z,49.1
2017-08-22T12:48:24.683Z,48.7
2017-08-22T12:49:26.821Z,48.8
2017-08-22T12:50:28.946Z,49
2017-08-22T12:51:30.417Z,48.8
2017-08-22T12:52:31.889Z,49
2017-08-22T12:53:33.818Z,49
2017-08-22T12:54:35.617Z,49
2017-08-22T12:55:37.420Z,48.8
2017-08-22T12:56:38.868Z,49
2017-08-22T12:57:40.336Z,49
2017-08-22T12:58:41.791Z,49
2017-08-22T12:59:43.583Z,49
2017-08-22T13:00:45.386Z,48.8
2017-08-22T13:01:46.850Z,49
2017-08-22T13:02:48.335Z,49
2017-08-22T13:03:49.802Z,49
2017-08-22T13:04:51.602Z,49
2017-08-22T13:05:53.046Z,48.7
2017-08-22T13:06:54.825Z,48.7
2017-08-22T13:07:56.621Z,48.7
2017-08-22T13:08:58.090Z,48.7
2017-08-22T13:09:59.892Z,48.7
2017-08-22T13:11:02.021Z,49
2017-08-22T13:12:03.491Z,49
2017-08-22T13:13:05.292Z,49.1
2017-08-22T13:14:07.089Z,48.8
2017-08-22T13:15:08.892Z,49
2017-08-22T13:16:10.678Z,49
2017-08-22T13:17:12.801Z,48.8
2017-08-22T13:18:14.933Z,48.7
2017-08-22T13:19:16.741Z,48.8
2017-08-22T13:20:18.544Z,49
2017-08-22T13:21:20.341Z,48.8
2017-08-22T13:22:22.143Z,48.7
2017-08-22T13:23:23.611Z,48.4
2017-08-22T13:24:25.740Z,48.6
2017-08-22T13:25:27.867Z,48.3
2017-08-22T13:26:30.032Z,48.5
2017-08-22T13:27:32.165Z,48.4
2017-08-22T13:28:34.301Z,48.6
2017-08-22T13:29:36.439Z,48.6
2017-08-22T13:30:38.232Z,48.5
2017-08-22T13:31:39.013Z,48.5
2017-08-22T13:32:40.790Z,48.5
2017-08-22T13:33:42.926Z,48.5
2017-08-22T13:34:45.107Z,48.6
2017-08-22T13:35:46.911Z,48.5
2017-08-22T13:36:49.077Z,48.8
2017-08-22T13:37:50.523Z,48.3
2017-08-22T13:38:52.657Z,48.8
2017-08-22T13:39:54.838Z,48.5
2017-08-22T13:40:56.644Z,48.6
2017-08-22T13:41:58.443Z,48.6
2017-08-22T13:43:00.571Z,48.5
2017-08-22T13:44:01.690Z,48.4
2017-08-22T13:45:03.819Z,48.4
2017-08-22T13:46:05.286Z,48.5
2017-08-22T13:47:06.765Z,48.5
2017-08-22T13:48:08.563Z,48.6
2017-08-22T13:49:10.338Z,48.5
2017-08-22T13:50:12.154Z,48.5
2017-08-22T13:51:13.953Z,48.6